Time;durP1;ratioP1;P1;durP2;ratioP2;P2;SDS_P1;SDS_P2;PMS_P1;PMS_P2;Temp;Humidity;BMP_temperature;BMP_pressure;BME280_temperature;BME280_humidity;BME280_pressure;Samples;Min_cycle;Max_cycle;Signal;HPM_P1;HPM_P2
2023/11/10 00:02:08;;;;;;;43.10;24.00;;;;;;;7.47;61.96;100505.78;107978;1253;70121;-65
2023/11/10 00:04:36;;;;;;;80.90;35.40;;;;;;;7.34;62.34;100503.39;108174;1254;72463;-66
2023/11/10 00:07:04;;;;;;;90.00;36.30;;;;;;;7.26;62.60;100501.96;108220;1254;60319;-67
2023/11/10 00:09:34;;;;;;;57.40;30.10;;;;;;;7.26;62.73;100506.33;108193;1254;60318;-66
2023/11/10 00:12:03;;;;;;;89.30;38.40;;;;;;;7.25;62.96;100501.09;108146;1254;73576;-66
2023/11/10 00:14:30;;;;;;;59.50;29.40;;;;;;;7.34;62.60;100503.73;108182;1254;70106;-66
2023/11/10 00:17:09;;;;;;;73.30;34.30;;;;;;;7.31;62.42;100507.28;108193;1252;73215;-66
2023/11/10 00:19:39;;;;;;;70.80;37.70;;;;;;;7.32;62.38;100509.36;108207;1254;61220;-65
2023/11/10 00:22:06;;;;;;;48.70;25.30;;;;;;;7.27;62.52;100509.80;108054;1254;60325;-65
2023/11/10 00:24:35;;;;;;;71.70;34.90;;;;;;;7.30;62.65;100509.21;108197;1254;74490;-66
2023/11/10 00:27:02;;;;;;;73.00;38.40;;;;;;;7.22;62.68;100508.15;108175;1254;70115;-66
2023/11/10 00:29:29;;;;;;;60.90;32.70;;;;;;;7.15;62.86;100509.14;108068;1253;71889;-66
2023/11/10 00:31:56;;;;;;;71.60;36.00;;;;;;;7.18;62.71;100513.27;108001;1253;61237;-66
2023/11/10 00:34:23;;;;;;;57.40;29.60;;;;;;;7.08;62.85;100509.42;107995;1254;60438;-66
2023/11/10 00:36:50;;;;;;;68.80;34.50;;;;;;;7.00;62.92;100513.91;108073;1254;73832;-67
2023/11/10 00:39:19;;;;;;;68.40;34.70;;;;;;;6.98;63.07;100513.80;108043;1258;70764;-66
2023/11/10 00:41:46;;;;;;;46.20;26.30;;;;;;;6.96;63.39;100510.49;107954;1253;72791;-64
2023/11/10 00:44:13;;;;;;;68.70;35.10;;;;;;;6.96;63.26;100509.45;107889;1254;61213;-66
2023/11/10 00:46:40;;;;;;;55.20;30.80;;;;;;;6.88;63.68;100507.14;108075;1253;60301;-66
2023/11/10 00:49:09;;;;;;;78.50;36.00;;;;;;;7.02;63.17;100508.48;107902;1254;73641;-67
2023/11/10 00:51:36;;;;;;;86.50;38.90;;;;;;;7.01;63.26;100509.89;107997;1253;70292;-66
2023/11/10 00:54:04;;;;;;;85.10;39.10;;;;;;;6.93;63.62;100514.55;108025;1253;72641;-66
2023/11/10 00:56:30;;;;;;;116.90;44.50;;;;;;;6.86;63.63;100521.11;108014;1254;61181;-66
2023/11/10 00:58:58;;;;;;;146.90;44.40;;;;;;;6.81;63.74;100516.49;107989;1253;59998;-65
2023/11/10 01:01:25;;;;;;;114.60;42.60;;;;;;;6.93;63.55;100512.10;107987;1254;73616;-66
2023/11/10 01:03:52;;;;;;;113.60;45.10;;;;;;;7.00;63.39;100510.96;107973;1254;68868;-65
2023/11/10 01:06:19;;;;;;;75.90;34.30;;;;;;;7.01;63.46;100506.05;108174;1254;72992;-66
2023/11/10 01:08:46;;;;;;;100.70;45.60;;;;;;;6.91;63.76;100507.77;107963;1252;61246;-66
2023/11/10 01:11:12;;;;;;;108.90;46.80;;;;;;;6.94;63.84;100506.33;108114;1254;60295;-66
2023/11/10 01:13:39;;;;;;;66.50;34.50;;;;;;;7.04;63.66;100508.09;108133;1253;73671;-66
2023/11/10 01:16:06;;;;;;;91.20;45.20;;;;;;;6.96;63.96;100507.18;108164;1254;70282;-66
2023/11/10 01:18:33;;;;;;;69.00;33.70;;;;;;;6.94;64.05;100505.30;108103;1254;72740;-65
2023/11/10 01:21:01;;;;;;;85.50;43.10;;;;;;;7.02;63.92;100507.59;108100;1254;61292;-67
2023/11/10 01:23:28;;;;;;;109.90;52.00;;;;;;;7.17;63.59;100503.85;107955;1254;59956;-66
2023/11/10 01:25:54;;;;;;;67.40;35.30;;;;;;;7.13;63.80;100505.67;108144;1254;73642;-66
2023/11/10 01:28:21;;;;;;;88.40;43.30;;;;;;;7.12;63.75;100510.42;108147;1254;69477;-66
2023/11/10 01:30:48;;;;;;;60.60;32.70;;;;;;;7.31;63.29;100511.48;108166;1254;72535;-66
2023/11/10 01:33:14;;;;;;;68.10;35.80;;;;;;;7.04;64.04;100512.30;107984;1254;60517;-66
2023/11/10 01:35:41;;;;;;;75.60;40.10;;;;;;;7.16;63.96;100508.77;108192;1254;60716;-66
2023/11/10 01:38:09;;;;;;;57.10;30.50;;;;;;;7.20;63.43;100508.16;108192;1254;73871;-66
2023/11/10 01:40:40;;;;;;;79.70;39.30;;;;;;;7.14;63.39;100506.88;108175;1256;70787;-66
2023/11/10 01:43:10;;;;;;;84.60;41.00;;;;;;;7.14;63.26;100510.20;108175;1256;73567;-66
2023/11/10 01:45:37;;;;;;;63.00;33.40;;;;;;;7.11;63.34;100511.66;108149;1253;61224;-66
2023/11/10 01:48:04;;;;;;;74.10;37.40;;;;;;;7.04;63.17;100511.23;108133;1254;60295;-65
2023/11/10 01:50:31;;;;;;;66.40;35.00;;;;;;;7.02;63.14;100510.76;108017;1254;73725;-66
2023/11/10 01:52:58;;;;;;;81.90;42.30;;;;;;;6.91;63.00;100508.48;107907;1254;69349;-65
2023/11/10 01:55:26;;;;;;;75.60;38.00;;;;;;;6.99;62.84;100507.30;108036;1254;71359;-67
2023/11/10 01:57:53;;;;;;;67.50;34.80;;;;;;;6.75;63.31;100503.48;108200;1254;60249;-66
2023/11/10 02:00:20;;;;;;;66.60;37.10;;;;;;;6.60;63.94;100507.73;107953;1254;60026;-66
2023/11/10 02:02:47;;;;;;;68.70;35.40;;;;;;;6.57;64.11;100511.27;107713;1254;73947;-67
2023/11/10 02:05:14;;;;;;;60.60;33.70;;;;;;;6.61;64.16;100511.20;108189;1254;70316;-66
2023/11/10 02:07:42;;;;;;;78.00;39.20;;;;;;;6.60;63.91;100511.77;108197;1254;72977;-66
2023/11/10 02:10:09;;;;;;;77.70;38.30;;;;;;;6.58;64.05;100512.48;108200;1254;60200;-65
2023/11/10 02:12:36;;;;;;;80.40;42.50;;;;;;;6.58;63.99;100510.55;108301;1254;60350;-64
2023/11/10 02:15:07;;;;;;;77.40;39.40;;;;;;;6.59;64.00;100507.39;108086;1254;72547;-65
2023/11/10 02:17:33;;;;;;;68.10;35.00;;;;;;;6.65;63.76;100509.41;108192;1254;70157;-66
2023/11/10 02:20:00;;;;;;;75.50;37.30;;;;;;;6.64;63.77;100513.97;108023;1254;72531;-66
2023/11/10 02:22:27;;;;;;;80.10;39.80;;;;;;;6.53;64.14;100524.58;108183;1256;61006;-66
2023/11/10 02:24:53;;;;;;;85.50;42.60;;;;;;;6.49;63.97;100515.91;107988;1253;60485;-66
2023/11/10 02:27:22;;;;;;;76.10;40.00;;;;;;;6.56;63.64;100517.40;108058;1259;73754;-66
2023/11/10 02:29:48;;;;;;;78.60;39.60;;;;;;;6.50;63.87;100520.96;108248;1254;70372;-66
2023/11/10 02:32:15;;;;;;;78.60;41.10;;;;;;;6.53;63.85;100520.74;108078;1254;72661;-66
2023/11/10 02:34:43;;;;;;;69.60;35.90;;;;;;;6.56;64.04;100518.97;108125;1254;60864;-66
2023/11/10 02:37:09;;;;;;;68.20;36.20;;;;;;;6.62;64.41;100515.73;108182;1254;60305;-66
2023/11/10 02:39:36;;;;;;;79.40;41.20;;;;;;;6.68;64.62;100526.81;108173;1254;73871;-65
2023/11/10 02:42:04;;;;;;;65.10;34.80;;;;;;;6.77;64.52;100515.69;108161;1254;70136;-66
2023/11/10 02:44:31;;;;;;;91.70;48.10;;;;;;;7.01;64.19;100518.98;108280;1256;72661;-66
2023/11/10 02:46:57;;;;;;;80.40;41.50;;;;;;;7.22;64.02;100517.23;108218;1254;61014;-66
2023/11/10 02:49:24;;;;;;;88.40;44.40;;;;;;;7.11;64.90;100513.04;108190;1254;60435;-66
2023/11/10 02:51:51;;;;;;;83.30;44.10;;;;;;;7.14;65.35;100512.64;108149;1255;73684;-65
2023/11/10 02:54:17;;;;;;;87.10;42.70;;;;;;;7.30;65.32;100510.61;108168;1254;70612;-65
2023/11/10 02:56:44;;;;;;;88.70;46.00;;;;;;;7.78;64.16;100503.96;108140;1253;71221;-66
2023/11/10 02:59:11;;;;;;;86.70;46.30;;;;;;;7.99;63.44;100501.64;108149;1253;61187;-67
2023/11/10 03:01:37;;;;;;;84.30;43.00;;;;;;;7.90;63.64;100495.36;108155;1254;60418;-66
2023/11/10 03:04:04;;;;;;;78.50;42.70;;;;;;;7.58;64.69;100497.02;108172;1254;60376;-67
2023/11/10 03:06:31;;;;;;;81.80;42.50;;;;;;;7.57;65.40;100497.20;108199;1253;70105;-66
2023/11/10 03:08:58;;;;;;;85.50;45.00;;;;;;;7.55;65.76;100501.96;108213;1254;72467;-67
2023/11/10 03:11:24;;;;;;;77.70;42.80;;;;;;;7.65;66.14;100501.25;108207;1255;60846;-66
2023/11/10 03:13:54;;;;;;;82.00;43.20;;;;;;;7.75;65.86;100501.06;107982;1257;60460;-67
2023/11/10 03:16:22;;;;;;;73.30;39.20;;;;;;;7.85;65.70;100505.23;108021;1253;75106;-67
2023/11/10 03:18:52;;;;;;;61.70;35.40;;;;;;;7.84;65.81;100503.15;108029;1254;70362;-66
2023/11/10 03:21:19;;;;;;;80.60;40.80;;;;;;;7.67;66.24;100504.18;108210;1256;72664;-67
2023/11/10 03:23:46;;;;;;;74.40;40.60;;;;;;;7.61;66.34;100509.02;108204;1254;61072;-66
2023/11/10 03:26:12;;;;;;;74.30;39.50;;;;;;;7.63;66.41;100508.11;108043;1255;142205;-66
2023/11/10 03:30:21;;;;;;;62.70;35.10;;;;;;;6.12;73.92;100502.52;105038;1289;601209;-66
2023/11/10 03:32:49;;;;;;;73.60;39.60;;;;;;;6.99;69.86;100501.70;108012;1254;60137;-66
2023/11/10 03:35:17;;;;;;;78.30;42.00;;;;;;;7.10;69.78;100495.95;107792;1256;60009;-66
2023/11/10 03:37:45;;;;;;;70.40;38.20;;;;;;;7.40;69.23;100496.30;107777;1255;72198;-66
2023/11/10 03:40:14;;;;;;;81.50;40.80;;;;;;;7.52;68.96;100499.23;107660;1256;68689;-66
2023/11/10 03:42:42;;;;;;;46.50;26.80;;;;;;;7.51;69.13;100499.75;107876;1257;72485;-66
2023/11/10 03:45:10;;;;;;;71.00;39.20;;;;;;;7.54;69.05;100498.14;107850;1257;210252;-66
2023/11/10 03:47:38;;;;;;;68.80;37.30;;;;;;;7.54;68.61;100499.70;108048;1254;59249;-66
2023/11/10 03:50:06;;;;;;;71.60;36.50;;;;;;;7.54;68.56;100501.45;108033;1254;71960;-66
2023/11/10 03:52:34;;;;;;;73.40;39.00;;;;;;;7.58;68.48;100500.86;108073;1253;70046;-66
2023/11/10 03:55:01;;;;;;;71.40;38.30;;;;;;;7.58;69.01;100499.81;108044;1259;72727;-66
2023/11/10 03:57:30;;;;;;;66.40;36.60;;;;;;;7.67;68.85;100504.89;108062;1254;61022;-66
2023/11/10 03:59:58;;;;;;;68.50;37.70;;;;;;;7.73;68.60;100497.08;107864;1254;59009;-66
2023/11/10 04:02:25;;;;;;;60.00;34.60;;;;;;;7.76;68.80;100497.36;107982;1254;74031;-66
2023/11/10 04:04:52;;;;;;;68.50;37.60;;;;;;;7.71;69.10;100493.62;107968;1254;68874;-65
2023/11/10 04:07:20;;;;;;;61.20;33.90;;;;;;;7.82;68.61;100492.70;107878;1254;71624;-65
2023/11/10 04:09:48;;;;;;;61.50;33.40;;;;;;;7.95;68.48;100494.37;107912;1254;59639;-68
2023/11/10 04:12:15;;;;;;;60.70;33.00;;;;;;;8.01;68.36;100492.67;108213;1251;59970;-65
2023/11/10 04:14:43;;;;;;;58.90;33.60;;;;;;;7.93;68.37;100490.92;108270;1251;73634;-67
2023/11/10 04:17:10;;;;;;;69.10;37.90;;;;;;;7.94;68.45;100497.54;108290;1251;69201;-67
2023/11/10 04:19:38;;;;;;;61.60;34.80;;;;;;;8.01;68.02;100500.02;108278;1250;71746;-66
2023/11/10 04:22:06;;;;;;;60.00;34.40;;;;;;;8.00;67.83;100500.56;108262;1252;60907;-66
2023/11/10 04:24:34;;;;;;;61.50;33.70;;;;;;;7.94;67.97;100495.95;108311;1251;59430;-66
2023/11/10 04:27:01;;;;;;;59.10;33.00;;;;;;;7.67;69.17;100496.85;108242;1255;73062;-66
2023/11/10 04:29:29;;;;;;;64.30;34.70;;;;;;;7.76;69.03;100501.58;108197;1251;69962;-65
2023/11/10 04:31:56;;;;;;;67.20;36.20;;;;;;;7.81;68.67;100503.05;108204;1253;71414;-66
2023/11/10 04:34:24;;;;;;;58.30;30.30;;;;;;;7.91;68.39;100502.84;108235;1251;61046;-66
2023/11/10 04:36:51;;;;;;;69.10;38.30;;;;;;;7.97;68.19;100509.54;108233;1250;59959;-66
2023/11/10 04:39:19;;;;;;;61.70;34.50;;;;;;;8.02;67.98;100509.78;108358;1251;71328;-66
2023/11/10 04:41:49;;;;;;;62.60;34.30;;;;;;;7.86;68.49;100514.13;108218;1251;68796;-66
2023/11/10 04:44:16;;;;;;;60.00;34.30;;;;;;;7.74;68.81;100519.95;108224;1251;72740;-66
2023/11/10 04:46:44;;;;;;;52.70;30.00;;;;;;;7.84;68.42;100515.06;108204;1251;59785;-66
2023/11/10 04:49:12;;;;;;;55.90;30.90;;;;;;;7.90;68.37;100513.00;108188;1251;59212;-66
2023/11/10 04:51:39;;;;;;;66.50;34.30;;;;;;;7.91;67.97;100514.72;108227;1251;73035;-65
2023/11/10 04:54:07;;;;;;;52.80;30.00;;;;;;;7.96;68.12;100513.41;108215;1251;68767;-66
2023/11/10 04:56:43;;;;;;;58.40;33.60;;;;;;;7.81;68.69;100515.45;108149;1253;72742;-66
2023/11/10 04:59:12;;;;;;;56.80;31.60;;;;;;;7.75;68.94;100516.09;108180;1251;60900;-66
2023/11/10 05:01:40;;;;;;;56.90;30.70;;;;;;;7.80;69.08;100518.63;108292;1251;59519;-65
2023/11/10 05:04:08;;;;;;;59.30;31.80;;;;;;;7.83;68.83;100511.39;108145;1250;73080;-66
2023/11/10 05:06:35;;;;;;;54.50;29.90;;;;;;;7.88;68.78;100512.70;108323;1251;69250;-65
2023/11/10 05:09:06;;;;;;;57.60;31.60;;;;;;;7.90;68.80;100516.66;108163;1251;73164;-66
2023/11/10 05:11:34;;;;;;;;;;;;;;;7.94;68.99;100515.19;108286;1251;59566;-66
2023/11/10 05:14:02;;;;;;;52.10;29.70;;;;;;;7.98;69.23;100518.61;108149;1256;59140;-68
2023/11/10 05:16:30;;;;;;;56.10;31.10;;;;;;;8.12;69.08;100520.95;108159;1251;73022;-65
2023/11/10 05:18:58;;;;;;;58.80;32.10;;;;;;;8.17;69.11;100519.60;108195;1251;69088;-66
2023/11/10 05:21:27;;;;;;;58.10;31.80;;;;;;;8.19;69.15;100522.55;108211;1251;71482;-66
2023/11/10 05:23:55;;;;;;;59.90;33.20;;;;;;;8.02;69.92;100527.98;108130;1253;60834;-66
2023/11/10 05:26:23;;;;;;;63.30;32.30;;;;;;;8.05;70.17;100529.49;108364;1251;60069;-65
2023/11/10 05:28:51;;;;;;;57.20;31.20;;;;;;;8.06;70.18;100529.45;108220;1251;72282;-66
2023/11/10 05:31:19;;;;;;;56.00;28.00;;;;;;;8.12;69.90;100529.34;108249;1251;69956;-66
2023/11/10 05:33:47;;;;;;;52.50;29.80;;;;;;;8.07;70.10;100526.12;108236;1251;72774;-66
2023/11/10 05:36:14;;;;;;;58.20;31.20;;;;;;;8.16;69.88;100527.69;108241;1256;59135;-66
2023/11/10 05:38:42;;;;;;;52.90;29.30;;;;;;;8.25;69.82;100534.86;108345;1251;59499;-65
2023/11/10 05:41:11;;;;;;;49.90;29.50;;;;;;;8.29;69.70;100536.34;108243;1251;71096;-68
2023/11/10 05:43:39;;;;;;;54.20;28.90;;;;;;;8.28;69.64;100535.31;108266;1251;69974;-67
2023/11/10 05:46:06;;;;;;;47.10;27.50;;;;;;;8.39;69.39;100537.39;108246;1254;72949;-67
2023/11/10 05:48:33;;;;;;;59.10;31.20;;;;;;;8.49;69.07;100539.44;108248;1251;59759;-66
2023/11/10 05:51:03;;;;;;;51.80;27.90;;;;;;;8.52;68.96;100540.24;108205;1251;60053;-66
2023/11/10 05:53:34;;;;;;;55.70;30.30;;;;;;;8.43;69.05;100545.68;108197;1251;73302;-66
2023/11/10 05:56:05;;;;;;;53.60;30.60;;;;;;;8.40;69.16;100546.80;108248;1253;69506;-66
2023/11/10 05:58:33;;;;;;;47.30;26.60;;;;;;;8.41;69.21;100551.31;108224;1251;72696;-66
2023/11/10 06:01:01;;;;;;;56.30;30.10;;;;;;;8.54;68.60;100548.42;108177;1256;60384;-66
2023/11/10 06:03:28;;;;;;;58.80;28.80;;;;;;;8.78;68.07;100544.75;108301;1251;59627;-65
2023/11/10 06:05:56;;;;;;;50.10;28.20;;;;;;;8.90;67.61;100539.91;108141;1251;72801;-66
2023/11/10 06:08:24;;;;;;;62.90;33.30;;;;;;;9.02;67.78;100540.52;108142;1251;70446;-66
2023/11/10 06:10:56;;;;;;;56.40;32.50;;;;;;;9.45;68.88;100541.88;108197;1251;70886;-66
2023/11/10 06:13:24;;;;;;;55.50;31.40;;;;;;;9.99;69.43;100543.77;108208;1251;60939;-67
2023/11/10 06:15:52;;;;;;;59.00;35.80;;;;;;;10.66;69.35;100540.80;108154;1251;60036;-67
2023/11/10 06:18:20;;;;;;;43.40;27.80;;;;;;;11.40;67.89;100535.22;108214;1251;71837;-67
2023/11/10 06:20:48;;;;;;;49.10;28.50;;;;;;;11.92;67.16;100530.28;108228;1251;70608;-67
2023/11/10 06:23:15;;;;;;;36.30;22.60;;;;;;;12.58;65.72;100529.04;108193;1251;71055;-66
2023/11/10 06:25:43;;;;;;;34.20;22.80;;;;;;;13.08;62.44;100528.30;108178;1251;59939;-67
2023/11/10 06:28:10;;;;;;;34.30;21.30;;;;;;;13.56;59.66;100524.35;108169;1251;59474;-67
2023/11/10 06:30:38;;;;;;;27.90;18.90;;;;;;;13.83;56.84;100523.21;108170;1251;71819;-65
2023/11/10 06:33:05;;;;;;;30.30;17.90;;;;;;;14.16;54.63;100525.21;108139;1256;69029;-66
2023/11/10 06:35:33;;;;;;;26.60;18.50;;;;;;;14.53;52.76;100531.52;108159;1253;72661;-67
2023/11/10 06:38:01;;;;;;;26.70;16.90;;;;;;;14.73;51.66;100527.38;108112;1253;61611;-67
2023/11/10 06:40:29;;;;;;;24.80;16.80;;;;;;;14.98;50.77;100532.57;108188;1251;60099;-67
2023/11/10 06:42:58;;;;;;;24.30;17.20;;;;;;;15.26;49.60;100529.20;108202;1251;71747;-67
2023/11/10 06:45:26;;;;;;;24.00;16.10;;;;;;;15.41;47.72;100526.88;108133;1251;69547;-67
2023/11/10 06:47:54;;;;;;;29.50;17.50;;;;;;;15.52;48.24;100521.86;108183;1256;72928;-67
2023/11/10 06:50:21;;;;;;;26.80;16.90;;;;;;;15.93;47.61;100519.24;108173;1251;60439;-65
2023/11/10 06:52:49;;;;;;;27.90;16.60;;;;;;;16.36;46.62;100517.11;108157;1251;60213;-68
2023/11/10 06:55:16;;;;;;;25.30;17.10;;;;;;;16.50;45.46;100512.25;108195;1251;71813;-67
2023/11/10 06:57:44;;;;;;;27.10;15.90;;;;;;;16.51;44.87;100507.24;108218;1251;69906;-67
2023/11/10 07:00:12;;;;;;;31.60;17.60;;;;;;;16.65;44.92;100505.23;108209;1256;72443;-68
2023/11/10 07:02:40;;;;;;;25.10;16.40;;;;;;;16.90;44.63;100507.40;108065;1254;60169;-67
2023/11/10 07:05:09;;;;;;;28.60;17.40;;;;;;;16.99;44.42;100507.02;108066;1257;59560;-67
2023/11/10 07:07:37;;;;;;;24.00;16.50;;;;;;;17.13;43.47;100505.36;108055;1258;73929;-68
2023/11/10 07:10:05;;;;;;;27.00;15.60;;;;;;;17.05;43.39;100509.70;108094;1253;69610;-68
2023/11/10 07:12:32;;;;;;;30.10;17.60;;;;;;;17.06;43.58;100512.52;108097;1257;74980;-68
2023/11/10 07:15:00;;;;;;;22.80;14.60;;;;;;;17.14;43.43;100506.18;108149;1253;59510;-68
2023/11/10 07:17:27;;;;;;;26.60;15.40;;;;;;;17.34;43.47;100511.05;108072;1258;59109;-68
2023/11/10 07:19:55;;;;;;;24.30;15.50;;;;;;;17.83;43.60;100509.36;108100;1252;71863;-68
2023/11/10 07:22:23;;;;;;;24.90;14.20;;;;;;;18.28;41.70;100511.04;108117;1254;69124;-67
2023/11/10 07:24:50;;;;;;;19.30;13.00;;;;;;;18.52;41.38;100513.02;108134;1254;72995;-68
2023/11/10 07:27:19;;;;;;;24.40;13.40;;;;;;;18.72;40.67;100508.39;108104;1254;59597;-68
2023/11/10 07:29:47;;;;;;;17.70;12.00;;;;;;;18.85;39.87;100508.48;108074;1254;59352;-68
2023/11/10 07:32:14;;;;;;;17.90;11.50;;;;;;;19.03;39.74;100506.02;108079;1253;73112;-68
2023/11/10 07:34:45;;;;;;;18.60;11.90;;;;;;;18.99;39.44;100505.23;108143;1254;70905;-69
2023/11/10 07:37:12;;;;;;;22.40;12.40;;;;;;;19.23;39.42;100497.95;108101;1254;72662;-68
2023/11/10 07:39:40;;;;;;;23.70;12.50;;;;;;;19.49;38.69;100494.02;108094;1253;60459;-67
2023/11/10 07:42:07;;;;;;;19.10;11.30;;;;;;;19.69;38.28;100491.25;108122;1253;60479;-68
2023/11/10 07:44:35;;;;;;;19.00;10.60;;;;;;;20.03;37.84;100489.42;107981;1259;73192;-68
2023/11/10 07:47:05;;;;;;;23.30;11.80;;;;;;;19.80;37.33;100488.17;108067;1254;69728;-68
2023/11/10 07:49:32;;;;;;;25.20;11.80;;;;;;;19.65;37.66;100487.25;108095;1254;71807;-67
2023/11/10 07:52:00;;;;;;;19.20;11.70;;;;;;;19.76;37.99;100486.15;108078;1254;60395;-68
2023/11/10 07:54:29;;;;;;;17.60;10.80;;;;;;;19.93;37.71;100482.98;108108;1254;60350;-67
2023/11/10 07:56:57;;;;;;;22.20;10.90;;;;;;;20.24;37.32;100484.54;108082;1252;73191;-68
2023/11/10 07:59:24;;;;;;;17.90;11.30;;;;;;;20.13;37.03;100482.31;108052;1251;68829;-67
2023/11/10 08:01:52;;;;;;;22.10;11.20;;;;;;;20.14;37.06;100479.02;108151;1251;72700;-68
2023/11/10 08:04:20;;;;;;;17.80;11.30;;;;;;;19.89;37.34;100482.05;108172;1251;60438;-68
2023/11/10 08:06:47;;;;;;;15.70;10.10;;;;;;;19.91;37.15;100485.79;108094;1251;61399;-67
2023/11/10 08:09:15;;;;;;;17.90;10.90;;;;;;;19.56;37.63;100479.70;108187;1251;73857;-68
2023/11/10 08:11:43;;;;;;;18.30;10.30;;;;;;;19.48;38.04;100476.86;108334;1251;69199;-68
2023/11/10 08:14:21;;;;;;;17.10;10.00;;;;;;;19.66;37.82;100476.50;108159;1251;72654;-68
2023/11/10 08:16:49;;;;;;;20.50;10.30;;;;;;;19.76;37.66;100477.58;108160;1251;60770;-68
2023/11/10 08:19:18;;;;;;;26.70;10.40;;;;;;;20.09;36.98;100473.34;108154;1251;60396;-68
2023/11/10 08:21:46;;;;;;;18.10;9.00;;;;;;;19.93;37.04;100474.47;108286;1251;73890;-69
2023/11/10 08:24:14;;;;;;;20.80;8.50;;;;;;;19.99;36.93;100474.20;108172;1256;69978;-69
2023/11/10 08:26:42;;;;;;;24.20;9.80;;;;;;;19.66;37.22;100472.56;108257;1251;72947;-69
2023/11/10 08:29:09;;;;;;;20.20;9.50;;;;;;;19.41;37.75;100473.22;108250;1251;60487;-69
2023/11/10 08:31:37;;;;;;;23.60;9.00;;;;;;;19.52;37.48;100460.18;108205;1251;60274;-69
2023/11/10 08:34:04;;;;;;;32.70;9.30;;;;;;;19.26;37.76;100461.27;108186;1251;74912;-69
2023/11/10 08:36:34;;;;;;;17.70;9.00;;;;;;;19.01;38.12;100469.32;108237;1251;70176;-69
2023/11/10 08:39:02;;;;;;;20.80;8.90;;;;;;;18.65;38.91;100465.42;108206;1251;72944;-69
2023/11/10 08:41:30;;;;;;;23.10;8.70;;;;;;;18.86;38.91;100462.18;108186;1251;62296;-68
2023/11/10 08:43:57;;;;;;;29.40;10.00;;;;;;;19.33;38.12;100457.58;108216;1251;60972;-68
2023/11/10 08:46:25;;;;;;;27.70;9.50;;;;;;;19.88;37.29;100452.32;108226;1251;76210;-68
2023/11/10 08:48:53;;;;;;;30.20;9.00;;;;;;;20.24;36.21;100456.39;108199;1251;69189;-68
2023/11/10 08:51:20;;;;;;;23.80;8.90;;;;;;;20.42;36.11;100448.86;108239;1251;72475;-68
2023/11/10 08:53:48;;;;;;;25.80;7.90;;;;;;;20.40;35.93;100446.11;108223;1251;62188;-68
2023/11/10 08:56:16;;;;;;;26.50;7.60;;;;;;;20.03;36.09;100456.80;108236;1251;61206;-68
2023/11/10 08:58:44;;;;;;;18.70;7.30;;;;;;;19.90;36.46;100454.17;108167;1253;74302;-68
2023/11/10 09:01:12;;;;;;;22.30;7.50;;;;;;;19.68;36.98;100451.10;108093;1254;72149;-68
2023/11/10 09:03:39;;;;;;;18.10;6.40;;;;;;;19.62;37.09;100447.54;108090;1254;71349;-67
2023/11/10 09:06:07;;;;;;;19.70;6.00;;;;;;;19.51;37.04;100441.04;108139;1254;61453;-68
2023/11/10 09:08:34;;;;;;;13.60;5.90;;;;;;;19.31;37.05;100438.48;108121;1253;61964;-68
2023/11/10 09:11:02;;;;;;;18.70;6.40;;;;;;;19.54;37.09;100431.23;108144;1254;73761;-66
2023/11/10 09:13:29;;;;;;;15.10;5.50;;;;;;;19.65;36.64;100431.17;108163;1254;70753;-68
2023/11/10 09:15:57;;;;;;;16.20;6.70;;;;;;;19.08;37.40;100431.00;108145;1254;72496;-67
2023/11/10 09:18:29;;;;;;;17.90;6.20;;;;;;;18.98;38.06;100425.76;108024;1254;60343;-67
2023/11/10 09:20:56;;;;;;;12.20;6.20;;;;;;;18.93;38.13;100424.30;108062;1254;60408;-67
2023/11/10 09:23:28;;;;;;;13.40;6.40;;;;;;;18.48;38.84;100424.09;108122;1254;73822;-68
2023/11/10 09:25:56;;;;;;;10.60;5.80;;;;;;;18.45;38.95;100422.28;108100;1254;69160;-68
2023/11/10 09:28:31;;;;;;;9.20;5.40;;;;;;;18.30;39.16;100419.56;108113;1254;74921;-68
2023/11/10 09:30:59;;;;;;;12.30;5.50;;;;;;;17.85;39.69;100424.33;108025;1254;60336;-68
2023/11/10 09:33:27;;;;;;;9.30;5.30;;;;;;;17.55;40.59;100417.31;108153;1254;60335;-67
2023/11/10 09:35:55;;;;;;;12.70;5.70;;;;;;;17.73;40.46;100413.52;108150;1254;73776;-67
2023/11/10 09:38:23;;;;;;;10.70;6.00;;;;;;;17.59;40.47;100411.90;108125;1254;70027;-67
2023/11/10 09:40:52;;;;;;;12.50;5.00;;;;;;;17.73;40.59;100409.45;108127;1252;71142;-67
2023/11/10 09:43:20;;;;;;;10.10;5.70;;;;;;;17.43;41.11;100404.19;108008;1254;60923;-67
2023/11/10 09:45:50;;;;;;;8.40;5.30;;;;;;;17.48;40.77;100415.22;108105;1254;60476;-67
2023/11/10 09:48:22;;;;;;;12.10;5.60;;;;;;;18.10;40.20;100400.55;108127;1253;75095;-67
2023/11/10 09:50:50;;;;;;;12.40;5.00;;;;;;;18.90;38.61;100394.85;108094;1254;70605;-68
2023/11/10 09:53:18;;;;;;;9.40;5.30;;;;;;;19.16;37.87;100384.02;108100;1254;71145;-68
2023/11/10 09:55:46;;;;;;;11.70;4.80;;;;;;;19.62;37.33;100381.84;108101;1254;60871;-68
2023/11/10 09:58:14;;;;;;;8.90;5.00;;;;;;;20.18;36.30;100376.06;108030;1258;60296;-68
2023/11/10 10:00:46;;;;;;;9.30;4.90;;;;;;;20.86;35.40;100374.43;108034;1251;74026;-68
2023/11/10 10:03:14;;;;;;;12.00;4.60;;;;;;;21.03;34.78;100367.57;108165;1251;69946;-68
2023/11/10 10:05:42;;;;;;;12.50;5.80;;;;;;;20.90;34.82;100358.62;108154;1253;74192;-68
2023/11/10 10:08:09;;;;;;;8.30;4.60;;;;;;;21.09;34.51;100363.15;108218;1256;60303;-68
2023/11/10 10:10:37;;;;;;;9.00;4.90;;;;;;;21.12;34.22;100358.80;108218;1251;60520;-67
2023/11/10 10:13:06;;;;;;;10.90;4.70;;;;;;;21.22;33.84;100354.48;108179;1256;74023;-67
2023/11/10 10:15:35;;;;;;;9.70;4.90;;;;;;;21.14;34.08;100353.34;108244;1251;71473;-66
2023/11/10 10:18:05;;;;;;;6.90;3.20;;;;;;;21.76;33.47;100350.81;108201;1251;73248;-68
2023/11/10 10:20:33;;;;;;;12.80;4.40;;;;;;;21.58;33.38;100346.16;108241;1251;60401;-68
2023/11/10 10:23:10;;;;;;;12.60;5.20;;;;;;;21.44;33.56;100345.80;108154;1251;60410;-68
2023/11/10 10:25:39;;;;;;;6.60;3.30;;;;;;;21.32;33.67;100345.13;108277;1251;74241;-69
2023/11/10 10:28:07;;;;;;;8.20;4.10;;;;;;;20.94;34.07;100343.83;108195;1251;69788;-67
2023/11/10 10:30:36;;;;;;;9.40;4.40;;;;;;;20.77;34.20;100336.75;108207;1251;74891;-68
2023/11/10 10:33:05;;;;;;;9.00;3.80;;;;;;;20.42;34.79;100334.02;108272;1251;60199;-68
2023/11/10 10:35:33;;;;;;;8.50;3.80;;;;;;;20.31;35.01;100333.72;108281;1251;60269;-68
2023/11/10 10:38:06;;;;;;;8.70;4.00;;;;;;;20.37;35.02;100330.11;108205;1251;73872;-67
2023/11/10 10:40:35;;;;;;;7.90;4.10;;;;;;;20.42;35.14;100326.52;108183;1256;69888;-68
2023/11/10 10:43:04;;;;;;;6.60;4.30;;;;;;;20.29;35.58;100324.25;108157;1251;71453;-68
2023/11/10 10:45:32;;;;;;;8.00;4.80;;;;;;;20.18;35.72;100325.26;108183;1251;60293;-67
2023/11/10 10:48:03;;;;;;;11.30;4.30;;;;;;;20.37;35.32;100324.35;108153;1251;60411;-68
2023/11/10 10:50:33;;;;;;;11.30;5.00;;;;;;;20.05;35.41;100321.78;108202;1257;76084;-68
2023/11/10 10:53:00;;;;;;;8.00;4.50;;;;;;;19.98;35.50;100325.34;108224;1256;70271;-68
2023/11/10 10:55:28;;;;;;;8.20;3.30;;;;;;;20.04;35.36;100327.38;108102;1257;72932;-67
2023/11/10 10:57:55;;;;;;;5.60;3.30;;;;;;;19.60;35.73;100321.27;107982;1251;60210;-68
2023/11/10 11:00:23;;;;;;;7.20;4.00;;;;;;;19.76;35.50;100315.45;108055;1253;61049;-67
2023/11/10 11:03:33;;;;;;;6.60;3.70;;;;;;;19.92;35.34;100315.73;108089;1254;72628;-68
2023/11/10 11:06:10;;;;;;;10.00;4.80;;;;;;;19.94;35.53;100311.86;108164;1254;69039;-67
2023/11/10 11:08:44;;;;;;;11.70;4.40;;;;;;;20.14;35.22;100305.59;108103;1254;73896;-68
2023/11/10 11:12:03;;;;;;;9.60;4.40;;;;;;;19.94;35.59;100307.27;108209;1254;60312;-69
2023/11/10 11:14:42;;;;;;;11.00;5.10;;;;;;;20.03;35.51;100311.21;107695;1258;60428;-69
2023/11/10 11:17:35;;;;;;;12.70;4.70;;;;;;;19.91;35.91;100303.02;107685;1262;72485;-67